Time;durP1;ratioP1;P1;durP2;ratioP2;P2;SDS_P1;SDS_P2;PMS_P1;PMS_P2;Temp;Humidity;BMP_temperature;BMP_pressure;BME280_temperature;BME280_humidity;BME280_pressure;Samples;Min_cycle;Max_cycle;Signal;HPM_P1;HPM_P2
2021/04/05 00:01:54;;;;;;;15.32;10.00;;;3.90;92.10;;;;;;4985572;28;20207;-67
2021/04/05 00:04:26;;;;;;;19.70;11.20;;;3.70;92.10;;;;;;4983469;28;20544;-68
2021/04/05 00:06:52;;;;;;;16.50;10.48;;;3.70;92.00;;;;;;4989791;28;20209;-67
2021/04/05 00:09:19;;;;;;;17.65;10.70;;;3.80;92.00;;;;;;5005711;28;20463;-67
2021/04/05 00:11:45;;;;;;;18.40;10.98;;;3.80;92.10;;;;;;5006221;28;20425;-68
2021/04/05 00:14:12;;;;;;;21.70;11.73;;;3.80;92.10;;;;;;4988010;28;20504;-67
2021/04/05 00:16:39;;;;;;;16.20;9.75;;;4.80;92.20;;;;;;4997771;28;20233;-67
2021/04/05 00:19:05;;;;;;;16.30;10.80;;;3.80;91.90;;;;;;4987989;28;20217;-68
2021/04/05 00:21:32;;;;;;;20.70;11.20;;;3.70;92.10;;;;;;4997965;28;20210;-67
2021/04/05 00:23:59;;;;;;;18.85;10.80;;;3.70;92.10;;;;;;4998461;28;20464;-67
2021/04/05 00:26:25;;;;;;;17.35;10.52;;;3.70;92.00;;;;;;4998437;28;20231;-67
2021/04/05 00:28:52;;;;;;;15.85;10.25;;;3.70;92.00;;;;;;4977980;28;20208;-67
2021/04/05 00:31:19;;;;;;;16.45;10.55;;;3.50;92.20;;;;;;4985871;28;20286;-67
2021/04/05 00:33:45;;;;;;;14.18;11.43;;;3.50;92.30;;;;;;4995425;28;20301;-67
2021/04/05 00:36:12;;;;;;;16.40;11.80;;;3.20;92.80;;;;;;5000994;28;20313;-68
2021/04/05 00:38:39;;;;;;;14.88;10.68;;;3.10;93.10;;;;;;5008029;28;20210;-67
2021/04/05 00:41:10;;;;;;;16.77;11.40;;;3.20;92.90;;;;;;4990787;28;20286;-68
2021/04/05 00:43:40;;;;;;;17.13;10.18;;;3.40;92.70;;;;;;4997264;28;20349;-68
2021/04/05 00:46:08;;;;;;;17.15;12.30;;;3.30;92.70;;;;;;4997463;28;20506;-68
2021/04/05 00:48:35;;;;;;;24.58;14.43;;;3.40;92.50;;;;;;4997426;28;20433;-67
2021/04/05 00:51:14;;;;;;;14.40;11.95;;;3.20;93.00;;;;;;4998105;28;20240;-67
2021/04/05 00:53:42;;;;;;;29.02;19.25;;;3.00;93.50;;;;;;4991753;28;20214;-67
2021/04/05 00:56:11;;;;;;;22.55;15.38;;;2.90;93.90;;;;;;4990700;28;20292;-66
2021/04/05 00:58:38;;;;;;;20.92;15.50;;;3.20;93.80;;;;;;4997225;28;20229;-68
2021/04/05 01:01:08;;;;;;;24.42;15.77;;;3.00;93.80;;;;;;4991072;28;20206;-68
2021/04/05 01:03:39;;;;;;;20.23;13.70;;;3.20;93.30;;;;;;4989670;28;20207;-67
2021/04/05 01:06:20;;;;;;;20.80;13.52;;;3.30;93.00;;;;;;4978291;28;20242;-67
2021/04/05 01:08:47;;;;;;;22.23;13.05;;;3.50;92.70;;;;;;4981499;28;20405;-68
2021/04/05 01:11:15;;;;;;;23.55;14.75;;;3.30;93.00;;;;;;4991539;28;20540;-67
2021/04/05 01:13:43;;;;;;;20.63;13.38;;;3.20;93.30;;;;;;4977482;28;20226;-68
2021/04/05 01:16:10;;;;;;;24.23;16.73;;;3.20;93.60;;;;;;4991251;28;20236;-67
2021/04/05 01:18:38;;;;;;;19.45;13.85;;;3.30;93.30;;;;;;4989903;28;20221;-67
2021/04/05 01:21:07;;;;;;;17.40;11.95;;;3.00;94.00;;;;;;4992294;28;20585;-66
2021/04/05 01:23:35;;;;;;;25.10;16.48;;;2.90;93.80;;;;;;4988418;28;20281;-67
2021/04/05 01:26:02;;;;;;;20.58;13.15;;;2.80;94.00;;;;;;4983687;28;20238;-67
2021/04/05 01:28:29;;;;;;;20.48;12.82;;;2.80;94.10;;;;;;4997326;28;20214;-67
2021/04/05 01:30:57;;;;;;;18.05;12.82;;;2.90;94.00;;;;;;4984193;28;20521;-67
2021/04/05 01:33:30;;;;;;;20.60;13.30;;;3.10;93.60;;;;;;4997404;28;20218;-68
2021/04/05 01:36:01;;;;;;;16.75;11.77;;;3.00;93.70;;;;;;4996784;28;20552;-67
2021/04/05 01:38:44;;;;;;;20.13;12.57;;;2.90;93.60;;;;;;4990150;28;20413;-66
2021/04/05 01:41:12;;;;;;;19.48;10.85;;;3.10;93.50;;;;;;4991606;28;20470;-67
2021/04/05 01:43:39;;;;;;;18.75;12.13;;;3.00;93.70;;;;;;4985609;28;20397;-67
2021/04/05 01:46:08;;;;;;;18.27;11.63;;;3.00;93.70;;;;;;5000484;28;20225;-69
2021/04/05 01:48:35;;;;;;;13.18;11.75;;;3.00;93.60;;;;;;4987550;28;20290;-68
2021/04/05 01:51:05;;;;;;;20.90;11.88;;;2.90;93.90;;;;;;5001166;28;20435;-68
2021/04/05 01:53:33;;;;;;;14.35;10.93;;;2.70;94.10;;;;;;4995761;28;20211;-66
2021/04/05 01:56:01;;;;;;;14.57;12.00;;;2.70;94.20;;;;;;4992685;28;20570;-66
2021/04/05 01:58:28;;;;;;;15.45;12.25;;;2.70;94.20;;;;;;5000175;28;20206;-66
2021/04/05 02:00:56;;;;;;;17.08;10.85;;;2.60;94.40;;;;;;5001222;28;20295;-66
2021/04/05 02:03:23;;;;;;;17.38;13.27;;;2.50;94.60;;;;;;4997434;28;20210;-68
2021/04/05 02:05:51;;;;;;;24.33;11.30;;;2.40;94.70;;;;;;4989194;28;20214;-68
2021/04/05 02:08:23;;;;;;;16.40;12.63;;;2.40;94.80;;;;;;5000394;28;20361;-67
2021/04/05 02:10:55;;;;;;;17.25;11.55;;;2.40;94.60;;;;;;5000639;28;20217;-66
2021/04/05 02:13:23;;;;;;;15.57;10.30;;;2.40;94.80;;;;;;4987055;28;20211;-69
2021/04/05 02:15:56;;;;;;;17.05;13.10;;;2.30;94.80;;;;;;5000131;28;20233;-67
2021/04/05 02:18:29;;;;;;;16.45;12.05;;;2.30;94.80;;;;;;4998629;28;20253;-68
2021/04/05 02:20:57;;;;;;;16.58;13.10;;;2.40;94.60;;;;;;4986072;28;20207;-68
2021/04/05 02:23:25;;;;;;;20.35;12.95;;;2.40;94.50;;;;;;5000238;28;20231;-68
2021/04/05 02:26:07;;;;;;;19.10;14.13;;;2.50;94.40;;;;;;5000021;28;20202;-68
2021/04/05 02:28:38;;;;;;;19.73;14.93;;;2.40;94.40;;;;;;4989669;28;20565;-68
2021/04/05 02:31:07;;;;;;;25.85;12.82;;;2.40;94.60;;;;;;4986997;28;20210;-67
2021/04/05 02:33:42;;;;;;;18.52;13.00;;;2.30;94.50;;;;;;4992968;28;20217;-68
2021/04/05 02:36:12;;;;;;;18.75;13.73;;;2.20;94.50;;;;;;4999094;28;20536;-68
2021/04/05 02:38:41;;;;;;;16.67;13.57;;;2.20;94.70;;;;;;5000632;28;20213;-67
2021/04/05 02:41:08;;;;;;;16.60;12.43;;;2.30;94.40;;;;;;4999871;28;20687;-67
2021/04/05 02:43:37;;;;;;;19.02;12.65;;;2.40;94.40;;;;;;4999411;28;20219;-67
2021/04/05 02:46:05;;;;;;;19.92;11.85;;;2.20;94.70;;;;;;4998706;28;20214;-67
2021/04/05 02:48:35;;;;;;;18.15;13.65;;;2.20;94.50;;;;;;4999859;28;20248;-68
2021/04/05 02:51:04;;;;;;;21.67;13.40;;;2.30;94.50;;;;;;4999843;28;20209;-69
2021/04/05 02:53:31;;;;;;;24.77;14.20;;;2.10;94.70;;;;;;4999968;28;20631;-68
2021/04/05 02:56:04;;;;;;;16.13;13.38;;;2.30;94.50;;;;;;4997913;28;20253;-67
2021/04/05 02:58:32;;;;;;;14.18;10.80;;;2.30;94.50;;;;;;4999125;28;20211;-67
2021/04/05 03:01:01;;;;;;;15.55;12.73;;;2.30;94.60;;;;;;5000005;28;20237;-67
2021/04/05 03:03:28;;;;;;;12.35;11.05;;;2.20;94.50;;;;;;4981062;28;20217;-67
2021/04/05 03:05:55;;;;;;;13.90;10.93;;;2.20;94.50;;;;;;4980190;28;20214;-67
2021/04/05 03:08:25;;;;;;;14.93;11.23;;;2.20;94.30;;;;;;4995854;28;20568;-67
2021/04/05 03:10:52;;;;;;;13.48;11.32;;;2.10;94.60;;;;;;4999685;28;20210;-67
2021/04/05 03:13:19;;;;;;;14.15;11.65;;;2.30;94.40;;;;;;4986783;28;20214;-66
2021/04/05 03:15:46;;;;;;;13.65;10.73;;;2.50;94.10;;;;;;4998090;28;20233;-67
2021/04/05 03:18:14;;;;;;;13.77;10.75;;;2.50;93.90;;;;;;4999482;28;20229;-67
2021/04/05 03:20:41;;;;;;;15.52;11.52;;;2.30;93.90;;;;;;4998615;28;20202;-67
2021/04/05 03:23:08;;;;;;;15.60;11.00;;;2.20;94.30;;;;;;4999128;28;20223;-68
2021/04/05 03:25:34;;;;;;;16.48;11.15;;;2.30;94.10;;;;;;4998652;28;20213;-67
2021/04/05 03:28:01;;;;;;;12.93;9.65;;;2.20;94.10;;;;;;4991358;28;20218;-67
2021/04/05 03:30:48;;;;;;;14.30;10.30;;;2.30;94.20;;;;;;4992241;28;20460;-66
2021/04/05 03:33:19;;;;;;;15.23;9.38;;;2.40;94.10;;;;;;4979647;28;20508;-68
2021/04/05 03:35:54;;;;;;;14.15;10.60;;;2.40;94.10;;;;;;4993621;28;20238;-68
2021/04/05 03:38:21;;;;;;;12.32;9.98;;;2.10;94.30;;;;;;4999088;28;20213;-68
2021/04/05 03:40:48;;;;;;;10.80;9.35;;;2.00;94.60;;;;;;4998052;28;20197;-68
2021/04/05 03:43:28;;;;;;;13.57;9.40;;;2.10;94.60;;;;;;4999222;28;20201;-67
2021/04/05 03:45:59;;;;;;;10.38;8.40;;;2.10;94.30;;;;;;4999444;28;20546;-67
2021/04/05 03:48:55;;;;;;;12.00;9.25;;;2.10;94.30;;;;;;4998963;28;20405;-67
2021/04/05 03:51:33;;;;;;;9.40;8.50;;;2.10;94.20;;;;;;4998997;28;20471;-67
2021/04/05 03:54:07;;;;;;;13.50;10.15;;;2.30;94.00;;;;;;4998557;28;20385;-67
2021/04/05 03:56:41;;;;;;;8.63;7.72;;;2.20;94.10;;;;;;4997473;28;20233;-67
2021/04/05 03:59:26;;;;;;;13.32;8.85;;;2.20;94.00;;;;;;4998928;28;20224;-67
2021/04/05 04:01:58;;;;;;;14.63;8.38;;;2.20;94.00;;;;;;4998806;28;20318;-68
2021/04/05 04:04:31;;;;;;;12.07;8.75;;;2.30;94.10;;;;;;4998411;28;20397;-68
2021/04/05 04:07:18;;;;;;;10.02;8.63;;;2.30;94.00;;;;;;4998882;28;20400;-67
2021/04/05 04:09:45;;;;;;;11.02;8.25;;;2.40;93.90;;;;;;4999118;28;21724;-67
2021/04/05 04:12:14;;;;;;;15.13;9.15;;;2.40;93.80;;;;;;4997388;28;20205;-68
2021/04/05 04:14:42;;;;;;;9.73;8.73;;;2.40;93.60;;;;;;4997868;28;20745;-68
2021/04/05 04:17:10;;;;;;;13.88;8.05;;;2.40;93.60;;;;;;4998218;28;20252;-68
2021/04/05 04:19:38;;;;;;;8.90;6.97;;;2.30;93.90;;;;;;4998265;28;20297;-68
2021/04/05 04:22:06;;;;;;;9.73;8.18;;;2.20;94.20;;;;;;4993495;28;20424;-69
2021/04/05 04:24:33;;;;;;;12.13;8.00;;;2.30;93.80;;;;;;4998207;28;20265;-68
2021/04/05 04:27:00;;;;;;;13.55;8.18;;;2.50;93.50;;;;;;4997904;28;20222;-68
2021/04/05 04:29:27;;;;;;;9.02;8.00;;;2.60;93.20;;;;;;4997948;28;20209;-68
2021/04/05 04:31:54;;;;;;;8.73;7.43;;;2.90;93.00;;;;;;4995052;28;20205;-69
2021/04/05 04:34:22;;;;;;;7.75;6.97;;;2.80;92.90;;;;;;4997194;28;20209;-68
2021/04/05 04:36:50;;;;;;;8.95;6.90;;;2.90;92.70;;;;;;4998818;28;20244;-68
2021/04/05 04:39:18;;;;;;;8.82;6.75;;;3.00;92.40;;;;;;4997742;28;20210;-68
2021/04/05 04:41:47;;;;;;;11.32;7.28;;;3.20;92.30;;;;;;4997721;28;20232;-69
2021/04/05 04:44:14;;;;;;;6.45;5.82;;;3.20;91.80;;;;;;4997402;28;20210;-68
2021/04/05 04:46:42;;;;;;;7.82;6.28;;;3.20;92.00;;;;;;4997898;28;20402;-67
2021/04/05 04:49:13;;;;;;;9.23;7.68;;;3.30;91.90;;;;;;4997773;28;20422;-67
2021/04/05 04:51:40;;;;;;;6.28;5.63;;;3.40;91.80;;;;;;4997866;28;20223;-69
2021/04/05 04:54:09;;;;;;;7.43;6.32;;;3.60;91.10;;;;;;4996434;28;20211;-68
2021/04/05 04:56:36;;;;;;;7.82;6.78;;;3.80;90.90;;;;;;4996910;28;20232;-67
2021/04/05 04:59:10;;;;;;;7.30;5.85;;;3.90;90.80;;;;;;4997884;28;20222;-69
2021/04/05 05:01:43;;;;;;;7.20;5.43;;;4.00;90.30;;;;;;4996160;28;20242;-68
2021/04/05 05:04:26;;;;;;;8.80;6.63;;;4.00;90.50;;;;;;4997989;28;20223;-68
2021/04/05 05:06:56;;;;;;;7.38;6.05;;;4.20;90.10;;;;;;4985189;28;20222;-68
2021/04/05 05:09:24;;;;;;;8.90;6.60;;;4.30;90.00;;;;;;4996238;28;20219;-67
2021/04/05 05:11:51;;;;;;;13.23;7.18;;;4.50;90.00;;;;;;4995215;28;20233;-67
2021/04/05 05:14:19;;;;;;;8.40;5.93;;;4.60;88.80;;;;;;4985537;28;20217;-67
2021/04/05 05:16:46;;;;;;;9.52;6.05;;;5.00;87.60;;;;;;4984147;28;20234;-68
2021/04/05 05:19:14;;;;;;;6.95;6.25;;;5.30;86.10;;;;;;4999116;28;20208;-68
2021/04/05 05:21:53;;;;;;;6.63;5.60;;;5.60;84.50;;;;;;5001450;28;20276;-68
2021/04/05 05:24:25;;;;;;;8.48;6.05;;;5.90;83.70;;;;;;5001509;28;20276;-67
2021/04/05 05:26:53;;;;;;;6.88;6.10;;;6.10;83.60;;;;;;5001110;28;20235;-67
2021/04/05 05:29:21;;;;;;;8.95;6.15;;;6.40;82.40;;;;;;5006260;28;20213;-67
2021/04/05 05:31:48;;;;;;;7.93;6.03;;;6.60;81.70;;;;;;5020948;28;20219;-67
2021/04/05 05:34:22;;;;;;;8.20;6.18;;;6.90;80.30;;;;;;5015922;28;20206;-66
2021/04/05 05:36:49;;;;;;;7.63;5.95;;;7.30;79.30;;;;;;5001668;28;20395;-69
2021/04/05 05:39:18;;;;;;;9.50;6.97;;;7.70;76.90;;;;;;5000726;28;20205;-68
2021/04/05 05:42:21;;;;;;;7.35;6.55;;;8.00;75.30;;;;;;5000248;28;20213;-68
2021/04/05 05:45:08;;;;;;;6.97;5.57;;;8.30;74.10;;;;;;4988775;28;20498;-67
2021/04/05 05:48:07;;;;;;;10.30;7.90;;;8.40;73.30;;;;;;5000699;28;20217;-68
2021/04/05 05:51:10;;;;;;;8.05;7.28;;;8.60;73.60;;;;;;5000675;28;20214;-68
2021/04/05 05:54:00;;;;;;;9.93;6.65;;;9.10;71.20;;;;;;4988949;28;20202;-68
2021/04/05 05:56:45;;;;;;;8.25;7.15;;;9.70;68.70;;;;;;5001078;28;20589;-67
2021/04/05 05:59:18;;;;;;;8.75;7.30;;;10.30;67.30;;;;;;5000083;28;20209;-66
2021/04/05 06:02:11;;;;;;;8.05;7.15;;;10.80;65.70;;;;;;5000245;28;20213;-68
2021/04/05 06:05:00;;;;;;;8.70;7.90;;;11.60;62.40;;;;;;5000791;28;20453;-70
2021/04/05 06:08:02;;;;;;;8.95;8.15;;;12.10;59.70;;;;;;5000807;28;20244;-68
2021/04/05 06:10:57;;;;;;;8.23;7.28;;;12.10;58.90;;;;;;4990116;28;20503;-69
2021/04/05 06:13:38;;;;;;;9.05;8.25;;;12.80;57.90;;;;;;4985631;28;20370;-68
2021/04/05 06:16:35;;;;;;;9.02;8.10;;;13.10;57.00;;;;;;4988126;28;20229;-68
2021/04/05 06:19:40;;;;;;;9.55;7.70;;;13.80;54.60;;;;;;5013816;28;20264;-71
2021/04/05 06:22:20;;;;;;;10.45;8.55;;;13.70;54.10;;;;;;4999749;28;20221;-71
2021/04/05 06:25:00;;;;;;;11.48;8.15;;;14.20;55.10;;;;;;4983322;28;20224;-73
2021/04/05 06:27:44;;;;;;;8.77;7.97;;;14.90;52.10;;;;;;4996224;28;20212;-70
2021/04/05 06:30:25;;;;;;;9.32;8.43;;;15.20;51.70;;;;;;4991566;28;20266;-69
2021/04/05 06:33:02;;;;;;;12.13;8.75;;;14.90;51.20;;;;;;4996008;28;20204;-69
2021/04/05 06:35:44;;;;;;;10.70;9.45;;;14.90;52.20;;;;;;4993453;28;20219;-69
2021/04/05 06:38:24;;;;;;;10.70;9.27;;;14.40;53.60;;;;;;4989253;28;20207;-75
2021/04/05 06:40:55;;;;;;;10.40;8.85;;;13.90;55.80;;;;;;4998312;28;20564;-69
2021/04/05 06:43:43;;;;;;;11.55;10.40;;;13.90;55.70;;;;;;5013440;28;20210;-68
2021/04/05 06:46:10;;;;;;;12.40;9.38;;;14.30;55.40;;;;;;4999612;28;20210;-69
2021/04/05 06:48:53;;;;;;;11.03;8.97;;;14.80;54.30;;;;;;4999510;28;20246;-68
2021/04/05 06:51:53;;;;;;;12.20;10.90;;;15.90;52.30;;;;;;4998357;28;20548;-69
2021/04/05 06:55:05;;;;;;;12.03;9.03;;;16.30;50.80;;;;;;4998177;28;20438;-70
2021/04/05 06:57:44;;;;;;;14.30;9.70;;;16.90;49.60;;;;;;4996981;28;20496;-68
2021/04/05 07:00:15;;;;;;;10.33;9.27;;;17.50;47.10;;;;;;4998061;28;20636;-69
2021/04/05 07:02:56;;;;;;;19.20;10.50;;;18.20;46.00;;;;;;4985665;28;20448;-69
2021/04/05 07:05:49;;;;;;;11.47;10.47;;;18.70;45.30;;;;;;4993602;28;20514;-69
2021/04/05 07:08:34;;;;;;;13.80;10.17;;;19.60;42.60;;;;;;4999166;28;20451;-69
2021/04/05 07:11:17;;;;;;;12.43;10.60;;;20.30;41.40;;;;;;5000507;28;20418;-68
2021/04/05 07:13:59;;;;;;;12.27;10.27;;;19.90;40.60;;;;;;4982650;28;20956;-68
2021/04/05 07:16:43;;;;;;;12.70;11.07;;;19.70;41.50;;;;;;4989478;28;20814;-69
2021/04/05 07:19:30;;;;;;;14.27;9.47;;;18.40;42.90;;;;;;4990768;28;20434;-69
2021/04/05 07:22:28;;;;;;;15.00;8.57;;;17.20;44.60;;;;;;4991334;28;20442;-70
2021/04/05 07:25:01;;;;;;;10.43;9.43;;;17.80;44.00;;;;;;4980019;28;20609;-69
2021/04/05 07:27:34;;;;;;;15.93;11.27;;;17.40;44.60;;;;;;4995671;28;20566;-69
2021/04/05 07:30:07;;;;;;;14.70;11.30;;;17.20;44.60;;;;;;5009280;28;20709;-69
2021/04/05 07:33:11;;;;;;;12.63;9.90;;;16.90;45.50;;;;;;5017989;28;20420;-69
2021/04/05 07:35:52;;;;;;;13.80;11.30;;;16.10;47.10;;;;;;5015421;28;20419;-69
2021/04/05 07:38:44;;;;;;;13.37;11.37;;;16.00;47.90;;;;;;4999029;28;20421;-70
2021/04/05 07:41:49;;;;;;;14.37;10.20;;;16.20;48.10;;;;;;4986781;28;20753;-68
2021/04/05 07:44:37;;;;;;;11.97;9.17;;;16.30;47.50;;;;;;4982367;28;20450;-68
2021/04/05 07:47:11;;;;;;;11.32;9.15;;;15.60;47.50;;;;;;4998080;28;20418;-69
2021/04/05 07:50:10;;;;;;;10.50;8.85;;;14.50;49.70;;;;;;4998355;28;20238;-69
2021/04/05 07:52:59;;;;;;;13.05;9.20;;;14.10;52.10;;;;;;4998165;28;20216;-68
2021/04/05 07:55:26;;;;;;;8.70;7.80;;;13.70;53.40;;;;;;4997605;28;20209;-68
2021/04/05 07:58:01;;;;;;;15.68;9.25;;;13.80;54.00;;;;;;4999682;28;20233;-69
2021/04/05 08:00:44;;;;;;;17.50;8.48;;;13.80;53.50;;;;;;4998812;28;20276;-68
2021/04/05 08:03:27;;;;;;;14.82;9.73;;;13.90;53.20;;;;;;5000996;28;20276;-68
2021/04/05 08:06:04;;;;;;;10.75;9.00;;;14.30;52.40;;;;;;4995451;28;20206;-69
2021/04/05 08:09:03;;;;;;;11.52;8.60;;;14.90;50.90;;;;;;4998542;28;20210;-70
2021/04/05 08:12:00;;;;;;;13.40;10.32;;;15.40;49.70;;;;;;4993602;28;20217;-70
2021/04/05 08:14:56;;;;;;;10.37;9.33;;;15.60;48.80;;;;;;4986646;28;20218;-70
2021/04/05 08:17:48;;;;;;;10.03;8.97;;;16.80;48.10;;;;;;4928619;28;20497;-70
2021/04/05 08:20:36;;;;;;;11.10;9.90;;;18.00;45.00;;;;;;4998323;28;20526;-71
2021/04/05 08:23:21;;;;;;;13.23;10.30;;;19.20;42.80;;;;;;4987581;28;20434;-70
2021/04/05 08:26:22;;;;;;;13.17;10.00;;;20.50;40.30;;;;;;4997611;28;20426;-71
2021/04/05 08:29:05;;;;;;;10.70;9.63;;;21.30;38.50;;;;;;4997493;28;20413;-69
2021/04/05 08:32:05;;;;;;;11.93;10.70;;;19.70;40.10;;;;;;4997528;28;20600;-70
2021/04/05 08:34:48;;;;;;;12.70;10.47;;;18.10;43.30;;;;;;4997089;28;20421;-70
2021/04/05 08:37:45;;;;;;;14.10;10.30;;;17.00;46.00;;;;;;4996526;28;20635;-72
2021/04/05 08:40:21;;;;;;;11.43;10.13;;;16.70;46.60;;;;;;4989518;28;20433;-70
2021/04/05 08:43:14;;;;;;;14.40;11.10;;;16.30;48.10;;;;;;4997354;28;20639;-70
2021/04/05 08:46:16;;;;;;;16.53;10.20;;;16.00;48.60;;;;;;4996984;28;20448;-69
2021/04/05 08:48:46;;;;;;;14.87;10.93;;;16.30;49.10;;;;;;4988296;28;20860;-70
2021/04/05 08:51:26;;;;;;;10.97;9.33;;;16.00;49.40;;;;;;4997301;28;20438;-69
2021/04/05 08:53:57;;;;;;;14.10;9.83;;;15.90;48.60;;;;;;4997402;28;20440;-71
2021/04/05 08:56:29;;;;;;;14.50;10.50;;;15.60;49.30;;;;;;4995753;28;21016;-70
2021/04/05 08:59:07;;;;;;;15.90;10.50;;;15.50;49.80;;;;;;4990228;28;20471;-70
2021/04/05 09:01:44;;;;;;;15.07;11.52;;;15.00;51.20;;;;;;4997365;28;20664;-69
2021/04/05 09:04:12;;;;;;;13.15;11.27;;;15.00;51.80;;;;;;4991326;28;20249;-70
2021/04/05 09:06:57;;;;;;;13.00;11.60;;;14.80;53.20;;;;;;4995331;28;20212;-70
2021/04/05 09:09:25;;;;;;;14.55;10.68;;;14.90;52.40;;;;;;4996540;28;20457;-69
2021/04/05 09:11:54;;;;;;;14.30;10.52;;;14.40;53.30;;;;;;4995610;28;20213;-70
2021/04/05 09:14:21;;;;;;;11.30;9.35;;;14.10;54.20;;;;;;4993191;28;20459;-69
2021/04/05 09:17:35;;;;;;;15.45;10.98;;;13.90;55.00;;;;;;5003677;28;20300;-69
2021/04/05 09:20:32;;;;;;;12.88;11.50;;;13.50;55.10;;;;;;4984169;28;20209;-69
2021/04/05 09:23:30;;;;;;;16.90;11.32;;;13.70;56.60;;;;;;4996893;28;20235;-69
2021/04/05 09:26:20;;;;;;;17.00;12.73;;;14.10;56.20;;;;;;4995371;28;20466;-69
2021/04/05 09:29:08;;;;;;;20.40;12.73;;;14.30;54.80;;;;;;4999178;28;20682;-70
2021/04/05 09:32:09;;;;;;;19.83;11.68;;;14.50;55.20;;;;;;4991156;28;20219;-69
2021/04/05 09:34:47;;;;;;;20.77;12.27;;;14.00;55.00;;;;;;4981910;28;20249;-70
2021/04/05 09:37:28;;;;;;;13.35;11.85;;;14.70;54.50;;;;;;4979511;28;20231;-70
2021/04/05 09:40:32;;;;;;;14.75;11.95;;;14.50;54.90;;;;;;4980809;28;20202;-71
2021/04/05 09:43:29;;;;;;;13.45;11.00;;;14.70;54.70;;;;;;4984259;28;20212;-72
2021/04/05 09:46:34;;;;;;;17.17;13.10;;;14.60;54.80;;;;;;4982984;28;20336;-69
2021/04/05 09:49:12;;;;;;;16.80;11.75;;;14.30;55.30;;;;;;4997486;28;20660;-70
2021/04/05 09:52:12;;;;;;;17.20;11.90;;;14.40;56.20;;;;;;4994732;28;20240;-71
2021/04/05 09:54:39;;;;;;;16.38;12.88;;;14.50;57.30;;;;;;4997362;28;20214;-69
2021/04/05 09:57:14;;;;;;;13.57;12.18;;;14.50;56.50;;;;;;4997598;28;20229;-70
2021/04/05 09:59:54;;;;;;;12.57;10.43;;;14.70;55.80;;;;;;4996532;28;20218;-70
2021/04/05 10:02:34;;;;;;;21.75;13.43;;;14.60;56.40;;;;;;4996756;28;20492;-69
2021/04/05 10:05:02;;;;;;;14.77;12.05;;;14.60;55.20;;;;;;4994456;28;20599;-69
2021/04/05 10:07:30;;;;;;;22.48;12.65;;;14.40;57.10;;;;;;5001706;28;20213;-70
2021/04/05 10:10:00;;;;;;;19.95;11.80;;;14.40;56.60;;;;;;4999443;28;20209;-69
2021/04/05 10:12:29;;;;;;;13.43;11.27;;;14.20;56.10;;;;;;4992781;28;20501;-70
2021/04/05 10:15:01;;;;;;;19.45;11.93;;;14.20;57.50;;;;;;5006916;28;20514;-70
2021/04/05 10:17:30;;;;;;;15.75;11.80;;;14.20;57.50;;;;;;5005594;28;20236;-70
2021/04/05 10:20:02;;;;;;;13.70;11.32;;;14.30;56.70;;;;;;5008271;28;21667;-71
2021/04/05 10:22:37;;;;;;;18.90;12.02;;;14.60;55.60;;;;;;4989763;28;20221;-69
2021/04/05 10:25:05;;;;;;;13.13;11.27;;;14.90;55.10;;;;;;4995090;28;20207;-71
2021/04/05 10:27:33;;;;;;;19.63;11.45;;;14.90;54.30;;;;;;5006803;28;20210;-70
2021/04/05 10:30:01;;;;;;;11.73;10.73;;;15.20;53.40;;;;;;5007079;28;20762;-71
2021/04/05 10:32:28;;;;;;;14.70;11.98;;;15.20;53.40;;;;;;5008063;28;20213;-71
2021/04/05 10:34:57;;;;;;;12.10;10.60;;;15.20;53.60;;;;;;5000423;28;20202;-70
2021/04/05 10:37:34;;;;;;;19.17;12.38;;;15.50;53.30;;;;;;4996666;28;20545;-69
2021/04/05 10:40:02;;;;;;;14.18;11.70;;;15.80;52.00;;;;;;5000461;28;20211;-69
2021/04/05 10:42:45;;;;;;;12.37;11.07;;;15.80;51.10;;;;;;4997352;28;20537;-71
2021/04/05 10:45:29;;;;;;;14.88;12.10;;;15.90;51.00;;;;;;4986102;28;20432;-70
2021/04/05 10:48:21;;;;;;;17.20;11.13;;;15.70;50.80;;;;;;4987841;28;20275;-71
2021/04/05 10:50:55;;;;;;;12.40;10.40;;;15.60;52.50;;;;;;4996227;28;20424;-69
2021/04/05 10:53:23;;;;;;;11.67;10.60;;;15.60;51.40;;;;;;4988843;28;20419;-69
2021/04/05 10:55:58;;;;;;;11.70;10.50;;;15.80;51.50;;;;;;4999429;28;20444;-70
2021/04/05 10:58:30;;;;;;;13.37;11.23;;;16.10;51.00;;;;;;4999372;28;20487;-69
2021/04/05 11:01:00;;;;;;;12.23;10.80;;;16.20;50.90;;;;;;4999462;28;20420;-70
2021/04/05 11:03:28;;;;;;;17.27;13.10;;;16.30;51.50;;;;;;4999484;28;20463;-70
2021/04/05 11:06:05;;;;;;;15.70;11.50;;;16.40;51.40;;;;;;4995705;28;20457;-70
2021/04/05 11:08:35;;;;;;;15.60;12.97;;;16.00;51.80;;;;;;4996145;28;20780;-69
2021/04/05 11:11:14;;;;;;;14.30;12.87;;;16.10;52.20;;;;;;4989547;28;20773;-69
2021/04/05 11:13:51;;;;;;;14.50;12.30;;;16.30;52.00;;;;;;4995493;28;20827;-71
2021/04/05 11:16:20;;;;;;;13.60;11.40;;;16.20;51.50;;;;;;4981793;28;20442;-70
2021/04/05 11:18:48;;;;;;;12.60;11.37;;;16.10;50.70;;;;;;4981594;28;20449;-69
2021/04/05 11:21:18;;;;;;;15.17;12.20;;;15.80;50.90;;;;;;4998644;28;20452;-69
2021/04/05 11:23:48;;;;;;;12.97;10.77;;;15.80;50.90;;;;;;4997571;28;20436;-69
2021/04/05 11:26:23;;;;;;;11.70;10.40;;;15.90;50.70;;;;;;5016859;28;20798;-70
2021/04/05 11:28:54;;;;;;;13.10;11.80;;;15.80;50.60;;;;;;5013169;28;20595;-69
2021/04/05 11:31:22;;;;;;;13.52;11.35;;;15.70;51.70;;;;;;5009928;28;20449;-69
2021/04/05 11:33:51;;;;;;;11.30;10.25;;;15.60;50.50;;;;;;4999079;28;20211;-69
2021/04/05 11:36:19;;;;;;;10.57;9.47;;;15.40;50.20;;;;;;4985829;28;20530;-70
2021/04/05 11:38:49;;;;;;;13.43;9.57;;;15.40;51.00;;;;;;4998836;28;20449;-70
2021/04/05 11:41:24;;;;;;;10.47;9.47;;;15.60;50.90;;;;;;4997466;28;20214;-70
2021/04/05 11:43:56;;;;;;;12.63;10.27;;;15.60;49.80;;;;;;4998487;28;20455;-71
2021/04/05 11:46:29;;;;;;;14.77;10.38;;;15.70;50.20;;;;;;4997381;28;20210;-70
2021/04/05 11:49:04;;;;;;;11.07;8.80;;;15.70;49.60;;;;;;4997980;28;20247;-71
2021/04/05 11:51:50;;;;;;;16.30;10.47;;;15.70;49.60;;;;;;4998516;28;20442;-71
2021/04/05 11:54:34;;;;;;;15.80;8.68;;;15.50;49.80;;;;;;4998483;28;20434;-70
2021/04/05 11:57:06;;;;;;;13.70;9.60;;;15.80;49.40;;;;;;4998649;28;20236;-70
2021/04/05 11:59:36;;;;;;;12.80;9.40;;;15.90;49.20;;;;;;5013027;28;20463;-69
2021/04/05 12:02:25;;;;;;;13.93;9.67;;;16.00;49.60;;;;;;4998716;28;20441;-71
2021/04/05 12:05:01;;;;;;;11.47;9.43;;;16.10;49.00;;;;;;4999656;28;20476;-70
2021/04/05 12:07:52;;;;;;;9.90;8.80;;;16.20;49.30;;;;;;4999330;28;20485;-70
2021/04/05 12:10:26;;;;;;;13.77;10.53;;;16.00;48.90;;;;;;4999802;28;20756;-70
2021/04/05 12:12:56;;;;;;;12.45;8.98;;;15.80;50.40;;;;;;4999668;28;20621;-71
2021/04/05 12:15:27;;;;;;;14.60;10.13;;;15.70;50.30;;;;;;4997151;28;20226;-70
2021/04/05 12:17:55;;;;;;;11.23;10.03;;;15.80;50.00;;;;;;4997617;28;20558;-70
2021/04/05 12:20:27;;;;;;;10.50;8.67;;;15.70;49.50;;;;;;4998042;28;20431;-69
2021/04/05 12:23:16;;;;;;;11.20;9.60;;;15.40;50.70;;;;;;4986543;28;20765;-71
2021/04/05 12:25:45;;;;;;;10.33;8.90;;;15.40;51.40;;;;;;4997127;28;20415;-70
2021/04/05 12:28:13;;;;;;;10.90;9.20;;;15.30;51.10;;;;;;4997969;28;20464;-70
2021/04/05 12:30:41;;;;;;;10.80;8.70;;;15.20;50.20;;;;;;4997481;28;20419;-71
2021/04/05 12:33:13;;;;;;;10.57;8.00;;;15.30;50.80;;;;;;4997854;28;20446;-70
2021/04/05 12:35:53;;;;;;;9.55;8.85;;;15.50;49.60;;;;;;4994314;28;20464;-69
2021/04/05 12:38:27;;;;;;;15.82;9.13;;;15.40;50.30;;;;;;4988071;28;20277;-70
2021/04/05 12:40:56;;;;;;;11.93;9.88;;;15.50;50.40;;;;;;4994967;28;20206;-70
2021/04/05 12:43:28;;;;;;;12.33;9.20;;;15.50;50.60;;;;;;4998175;28;20211;-70
2021/04/05 12:45:56;;;;;;;9.98;8.85;;;15.40;50.80;;;;;;4993111;28;20456;-69
2021/04/05 12:48:27;;;;;;;11.25;10.15;;;15.30;51.70;;;;;;4994157;28;20294;-70
2021/04/05 12:51:01;;;;;;;9.40;8.40;;;15.00;51.90;;;;;;4997326;28;20202;-69
2021/04/05 12:53:31;;;;;;;10.80;9.07;;;14.70;52.90;;;;;;4992979;28;20212;-70
2021/04/05 12:55:59;;;;;;;13.95;8.40;;;14.60;52.70;;;;;;4983318;28;20265;-70
2021/04/05 12:58:27;;;;;;;10.43;7.82;;;14.50;52.60;;;;;;4997601;28;20261;-70
2021/04/05 13:00:55;;;;;;;14.20;7.95;;;14.40;52.00;;;;;;4997117;28;20212;-69
2021/04/05 13:03:50;;;;;;;7.13;6.38;;;14.40;52.00;;;;;;4997534;28;20222;-70
2021/04/05 13:06:23;;;;;;;6.95;6.20;;;14.00;52.10;;;;;;4996739;28;20237;-69
2021/04/05 13:08:50;;;;;;;10.18;6.50;;;13.70;55.00;;;;;;4997367;28;20209;-69
2021/04/05 13:11:43;;;;;;;10.68;6.30;;;13.50;57.10;;;;;;4997182;28;20386;-70
2021/04/05 13:14:35;;;;;;;6.68;6.05;;;13.30;56.00;;;;;;4981767;28;20420;-70
2021/04/05 13:17:12;;;;;;;6.75;6.22;;;13.20;55.40;;;;;;4988027;28;20401;-69
2021/04/05 13:19:49;;;;;;;8.23;6.22;;;13.20;55.30;;;;;;4997594;28;20531;-69
2021/04/05 13:22:21;;;;;;;6.70;6.20;;;13.10;55.40;;;;;;4982804;28;20245;-68